Burwell, NE

10:53 AM CDT on August 20, 2014 (GMT -0500)
Sharp | Change Station
CLOSE
Current Station
Airport
Location: Ord,
Elevation: 2070 ft
Nearby Weather Stations

Elev 2070 ft 41.62 °N, 98.95 °W | Updated 34 minutes ago

Scattered Clouds
Scattered Clouds
74 °F
Feels Like 74 °F
N
10
Wind Variable Wind from ESE

Today
High -- | Low -- °F
--% Chance of Precip.
Yesterday
High -- | Low -- °F
Precip. -- in
6:50 AM 8:28 PM
Waning Crescent, 21% visible
Pressure 29.77 in
Visibility 10.0 miles
Clouds Scattered Clouds 11000 ft
Dew Point 68 °F
Humidity 82%
Rainfall 0.00 in
Snow Depth Not available.
UV 4 out of 12
Pollen 10.90 out of 12
Air Quality Not available.
Flu Activity Not available.
SPECI KODX 201519Z AUTO 12009KT 10SM SCT110 23/20 A2977 RMK AO2 LTG DSNT NE T02330200

More Conditions Fewer Conditions

Pressure 29.77 in
Visibility 10.0 miles
Clouds Scattered Clouds 11000 ft
Dew Point 68 °F
Humidity 82%
Rainfall 0.00 in
Snow Depth Not available.
UV 4 out of 12
Pollen 10.90 out of 12
Air Quality Not available.
Flu Activity Not available.
SPECI KODX 201519Z AUTO 12009KT 10SM SCT110 23/20 A2977 RMK AO2 LTG DSNT NE T02330200

More Conditions Fewer Conditions

10-Day Weather Forecast

Almanac

Astronomy

Aug. 20, 2014 Rise Set
Actual Time 6:50 AM CDT 8:28 PM CDT
Civil Twilight 6:20 AM CDT 8:58 PM CDT
Nautical Twilight 5:44 AM CDT 9:33 PM CDT
Astronomical Twilight 5:06 AM CDT 10:12 PM CDT
Moon 2:29 AM CDT 5:16 PM CDT
Length of Visible Light 14h 37m
Length of Day
13h 38m
Tomorrow will be 2m 33s shorter.
Waning Crescent, 21% of the Moon is Illuminated
Today
Waning Crescent
Aug 25
New
Sep 2
First Quarter
Sep 8
Full
Sep 15
Last Quarter

Today's Extremes

State Highs State Lows

Community

WunderPhotos

Upload Photos

1,745,668 photos uploaded!

WunderBlogs® & News

Nearby

Snow Depth

Station Depth Elevation
No new snow has been reported.

Earthquake Activity

City Distance Mag. Time & Date
No recent earthquake activity has been reported nearby.
Minimum magnitude displayed is 2.5.

Coastal Water Temperatures

Place Temperature
No Stations Reporting

Nearby Weather Stations